createdAt,value
2022-10-22T00:00:11.063Z,98680.80
2022-10-22T00:01:11.065Z,98678.92
2022-10-22T00:02:11.064Z,98676.91
2022-10-22T00:03:11.173Z,98681.54
2022-10-22T00:04:11.065Z,98684.14
2022-10-22T00:05:11.062Z,98683.40
2022-10-22T00:06:11.063Z,98688.80
2022-10-22T00:07:11.064Z,98690.88
2022-10-22T00:08:11.062Z,98693.02
2022-10-22T00:09:11.099Z,98691.63
2022-10-22T00:10:11.066Z,98696.14
2022-10-22T00:11:14.063Z,98696.66
2022-10-22T00:12:11.065Z,98699.45
2022-10-22T00:13:11.074Z,98705.10
2022-10-22T00:14:11.065Z,98705.20
2022-10-22T00:15:11.062Z,98702.61
2022-10-22T00:16:11.064Z,98705.70
2022-10-22T00:17:11.665Z,98709.14
2022-10-22T00:18:11.064Z,98708.34
2022-10-22T00:19:11.066Z,98712.96
2022-10-22T00:20:11.066Z,98707.67
2022-10-22T00:21:11.057Z,98710.06
2022-10-22T00:22:11.059Z,98709.96
2022-10-22T00:23:11.066Z,98716.66
2022-10-22T00:24:11.061Z,98713.42
2022-10-22T00:25:11.056Z,98717.81
2022-10-22T00:26:11.065Z,98722.01
2022-10-22T00:27:11.061Z,98722.29
2022-10-22T00:28:11.058Z,98720.55
2022-10-22T00:29:11.060Z,98727.69
2022-10-22T00:30:11.061Z,98730.36
2022-10-22T00:31:11.058Z,98726.82
2022-10-22T00:32:11.061Z,98727.18
2022-10-22T00:33:11.061Z,98719.54
2022-10-22T00:34:11.058Z,98728.70
2022-10-22T00:35:11.061Z,98728.65
2022-10-22T00:36:11.067Z,98732.00
2022-10-22T00:37:11.061Z,98729.41
2022-10-22T00:38:11.063Z,98733.82
2022-10-22T00:39:11.068Z,98734.18
2022-10-22T00:40:11.061Z,98735.39
2022-10-22T00:41:11.057Z,98740.66
2022-10-22T00:42:17.069Z,98738.56
2022-10-22T00:43:15.063Z,98736.20
2022-10-22T00:44:15.061Z,98743.40
2022-10-22T00:45:16.061Z,98741.03
2022-10-22T00:46:11.070Z,98745.62
2022-10-22T00:47:11.064Z,98744.64
2022-10-22T00:48:16.065Z,98750.52
2022-10-22T00:49:11.062Z,98748.32
2022-10-22T00:50:17.063Z,98752.87
2022-10-22T00:51:11.059Z,98749.82
2022-10-22T00:52:11.064Z,98751.86
2022-10-22T00:53:16.064Z,98754.80
2022-10-22T00:54:11.063Z,98758.71
2022-10-22T00:55:11.060Z,98758.70
2022-10-22T00:56:11.066Z,98760.72
2022-10-22T00:57:11.063Z,98767.00
2022-10-22T00:58:11.062Z,98764.04
2022-10-22T00:59:12.064Z,98765.20
2022-10-22T01:00:11.071Z,98766.97
2022-10-22T01:01:13.168Z,98767.19
2022-10-22T01:02:11.066Z,98766.74
2022-10-22T01:03:11.071Z,98770.76
2022-10-22T01:04:11.067Z,98768.71
2022-10-22T01:05:11.065Z,98765.34
2022-10-22T01:06:12.073Z,98769.06
2022-10-22T01:07:17.063Z,98773.95
2022-10-22T01:08:17.077Z,98766.45
2022-10-22T01:09:21.064Z,98769.15
2022-10-22T01:10:19.071Z,98773.06
2022-10-22T01:11:19.064Z,98770.61
2022-10-22T01:12:19.063Z,98771.65
2022-10-22T01:13:21.065Z,98775.73
2022-10-22T01:14:19.065Z,98780.18
2022-10-22T01:15:19.066Z,98782.25
2022-10-22T01:16:21.077Z,98784.14
2022-10-22T01:17:19.072Z,98785.62
2022-10-22T01:18:19.065Z,98783.72
2022-10-22T01:19:19.067Z,98787.43
2022-10-22T01:20:19.068Z,98783.09
2022-10-22T01:21:19.069Z,98786.26
2022-10-22T01:22:21.057Z,98786.17
2022-10-22T01:23:21.057Z,98787.23
2022-10-22T01:24:19.062Z,98794.95
2022-10-22T01:25:19.065Z,98792.67
2022-10-22T01:26:21.101Z,98790.24
2022-10-22T01:27:19.066Z,98791.33
2022-10-22T01:28:19.063Z,98788.00
2022-10-22T01:29:19.064Z,98789.87
2022-10-22T01:30:12.060Z,98795.06
2022-10-22T01:31:12.060Z,98794.39
2022-10-22T01:32:14.081Z,98795.54
2022-10-22T01:33:11.077Z,98791.13
2022-10-22T01:34:11.060Z,98797.41
2022-10-22T01:35:12.068Z,98798.63
2022-10-22T01:36:11.072Z,98801.56
2022-10-22T01:37:12.058Z,98802.52
2022-10-22T01:38:13.066Z,98802.96
2022-10-22T01:39:11.061Z,98808.59
2022-10-22T01:40:11.060Z,98806.89
2022-10-22T01:41:11.062Z,98810.18
2022-10-22T01:42:12.069Z,98810.32
2022-10-22T01:43:11.059Z,98811.61
2022-10-22T01:44:19.063Z,98812.49
2022-10-22T01:45:16.063Z,98819.28
2022-10-22T01:46:12.081Z,98816.01
2022-10-22T01:47:21.060Z,98820.35
2022-10-22T01:48:19.064Z,98820.27
2022-10-22T01:49:19.061Z,98822.32
2022-10-22T01:50:23.069Z,98830.27
2022-10-22T01:51:19.063Z,98833.26
2022-10-22T01:52:19.061Z,98833.42
2022-10-22T01:53:19.060Z,98833.62
2022-10-22T01:54:19.065Z,98829.68
2022-10-22T01:55:19.065Z,98831.53
2022-10-22T01:56:23.064Z,98833.80
2022-10-22T01:57:19.062Z,98832.66
2022-10-22T01:58:19.061Z,98833.24
2022-10-22T01:59:19.065Z,98836.18
2022-10-22T02:00:12.075Z,98835.58
2022-10-22T02:01:21.071Z,98832.67
2022-10-22T02:02:23.064Z,98833.00
2022-10-22T02:03:21.285Z,98833.07
2022-10-22T02:04:21.452Z,98836.95
2022-10-22T02:05:21.066Z,98839.08
2022-10-22T02:06:17.062Z,98836.53
2022-10-22T02:07:14.074Z,98838.85
2022-10-22T02:08:15.065Z,98837.32
2022-10-22T02:09:13.173Z,98836.36
2022-10-22T02:10:11.066Z,98840.99
2022-10-22T02:11:12.073Z,98839.51
2022-10-22T02:12:11.068Z,98837.74
2022-10-22T02:13:13.069Z,98843.57
2022-10-22T02:14:11.064Z,98843.38
2022-10-22T02:15:11.067Z,98844.41
2022-10-22T02:16:13.075Z,98843.69
2022-10-22T02:17:16.063Z,98849.21
2022-10-22T02:18:11.074Z,98847.77
2022-10-22T02:19:19.066Z,98847.19
2022-10-22T02:20:17.065Z,98847.96
2022-10-22T02:21:11.061Z,98852.42
2022-10-22T02:22:11.066Z,98859.88
2022-10-22T02:23:11.060Z,98855.98
2022-10-22T02:24:11.055Z,98863.33
2022-10-22T02:25:11.068Z,98869.93
2022-10-22T02:26:19.057Z,98861.42
2022-10-22T02:27:25.705Z,98858.78
2022-10-22T02:28:23.064Z,98862.61
2022-10-22T02:29:17.060Z,98863.68
2022-10-22T02:30:14.072Z,98864.20
2022-10-22T02:31:19.058Z,98861.52
2022-10-22T02:32:11.059Z,98864.52
2022-10-22T02:33:17.062Z,98867.45
2022-10-22T02:34:12.069Z,98875.09
2022-10-22T02:35:13.059Z,98870.76
2022-10-22T02:36:11.060Z,98866.31
2022-10-22T02:37:11.067Z,98870.18
2022-10-22T02:38:11.064Z,98871.17
2022-10-22T02:39:11.102Z,98871.15
2022-10-22T02:40:11.061Z,98869.23
2022-10-22T02:41:11.062Z,98871.84
2022-10-22T02:42:11.060Z,98871.62
2022-10-22T02:43:11.062Z,98881.98
2022-10-22T02:44:12.061Z,98882.44
2022-10-22T02:45:11.063Z,98884.54
2022-10-22T02:46:11.064Z,98887.67
2022-10-22T02:47:11.064Z,98892.92
2022-10-22T02:48:11.118Z,98893.38
2022-10-22T02:49:11.062Z,98897.39
2022-10-22T02:50:11.064Z,98894.71
2022-10-22T02:51:11.060Z,98902.68
2022-10-22T02:52:11.064Z,98896.13
2022-10-22T02:53:11.071Z,98902.43
2022-10-22T02:54:11.060Z,98902.77
2022-10-22T02:55:11.064Z,98906.41
2022-10-22T02:56:11.070Z,98904.86
2022-10-22T02:57:11.093Z,98907.50
2022-10-22T02:58:11.061Z,98906.76
2022-10-22T02:59:11.071Z,98905.23
2022-10-22T03:00:11.071Z,98912.21
2022-10-22T03:01:13.768Z,98912.73
2022-10-22T03:02:13.145Z,98918.19
2022-10-22T03:03:11.072Z,98917.18
2022-10-22T03:04:11.063Z,98911.76
2022-10-22T03:05:11.064Z,98916.72
2022-10-22T03:06:11.071Z,98918.06
2022-10-22T03:07:11.067Z,98915.14
2022-10-22T03:08:11.065Z,98913.63
2022-10-22T03:09:11.071Z,98918.98
2022-10-22T03:10:11.065Z,98919.89
2022-10-22T03:11:11.067Z,98923.12
2022-10-22T03:12:11.074Z,98925.51
2022-10-22T03:13:11.067Z,98927.00
2022-10-22T03:14:11.062Z,98928.36
2022-10-22T03:15:11.068Z,98929.02
2022-10-22T03:16:11.068Z,98933.14
2022-10-22T03:17:11.063Z,98931.73
2022-10-22T03:18:11.074Z,98935.55
2022-10-22T03:19:11.068Z,98938.62
2022-10-22T03:20:11.062Z,98943.39
2022-10-22T03:21:19.067Z,98945.86
2022-10-22T03:22:17.059Z,98946.12
2022-10-22T03:23:11.059Z,98948.39
2022-10-22T03:24:19.058Z,98951.24
2022-10-22T03:25:11.096Z,98950.47
2022-10-22T03:26:11.061Z,98956.15
2022-10-22T03:27:11.055Z,98953.70
2022-10-22T03:28:11.062Z,98955.93
2022-10-22T03:29:11.060Z,98960.95
2022-10-22T03:30:11.057Z,98960.94
2022-10-22T03:31:11.063Z,98961.36
2022-10-22T03:32:11.062Z,98964.38
2022-10-22T03:33:11.057Z,98966.75
2022-10-22T03:34:11.063Z,98968.12
2022-10-22T03:35:11.061Z,98971.97
2022-10-22T03:36:11.060Z,98972.61
2022-10-22T03:37:11.061Z,98974.71
2022-10-22T03:38:11.061Z,98981.55
2022-10-22T03:39:12.060Z,98981.87
2022-10-22T03:40:11.061Z,98981.15
2022-10-22T03:41:11.067Z,98985.18
2022-10-22T03:42:11.061Z,98984.86
2022-10-22T03:43:11.064Z,98991.39
2022-10-22T03:44:11.069Z,98990.00
2022-10-22T03:45:11.063Z,98989.62
2022-10-22T03:46:11.065Z,98992.32
2022-10-22T03:47:11.070Z,98995.37
2022-10-22T03:48:11.060Z,98998.81
2022-10-22T03:49:11.068Z,98998.33
2022-10-22T03:50:11.071Z,99004.54
2022-10-22T03:51:11.067Z,99006.67
2022-10-22T03:52:13.063Z,99008.05
2022-10-22T03:53:11.063Z,99010.88
2022-10-22T03:54:11.063Z,99012.96
2022-10-22T03:55:11.060Z,99010.70
2022-10-22T03:56:11.065Z,99016.02
2022-10-22T03:57:11.064Z,99018.68
2022-10-22T03:58:11.062Z,99022.59
2022-10-22T03:59:11.063Z,99022.00
2022-10-22T04:00:11.065Z,99022.01
2022-10-22T04:01:11.149Z,99025.12
2022-10-22T04:02:11.064Z,99028.62
2022-10-22T04:03:11.069Z,99029.32
2022-10-22T04:04:11.062Z,99030.58
2022-10-22T04:05:11.177Z,99029.70
2022-10-22T04:06:12.070Z,99029.75
2022-10-22T04:07:11.062Z,99034.48
2022-10-22T04:08:11.066Z,99038.36
2022-10-22T04:09:11.159Z,99043.78
2022-10-22T04:10:11.063Z,99041.27
2022-10-22T04:11:11.067Z,99044.48
2022-10-22T04:12:11.072Z,99041.88
2022-10-22T04:13:11.064Z,99042.02
2022-10-22T04:14:11.070Z,99045.50
2022-10-22T04:15:11.073Z,99044.59
2022-10-22T04:16:18.065Z,99040.45
2022-10-22T04:17:11.066Z,99039.72
2022-10-22T04:18:11.065Z,99039.18
2022-10-22T04:19:11.068Z,99042.67
2022-10-22T04:20:11.065Z,99043.12
2022-10-22T04:21:11.060Z,99041.15
2022-10-22T04:22:11.065Z,99039.34
2022-10-22T04:23:11.056Z,99042.79
2022-10-22T04:24:11.058Z,99045.18
2022-10-22T04:25:11.067Z,99043.82
2022-10-22T04:26:11.057Z,99047.27
2022-10-22T04:27:11.059Z,99048.71
2022-10-22T04:28:11.060Z,99054.54
2022-10-22T04:29:13.619Z,99053.30
2022-10-22T04:30:13.419Z,99060.65
2022-10-22T04:31:11.066Z,99058.78
2022-10-22T04:32:11.057Z,99050.14
2022-10-22T04:33:11.062Z,99052.28
2022-10-22T04:34:11.071Z,99050.73
2022-10-22T04:35:11.062Z,99051.54
2022-10-22T04:36:17.062Z,99050.05
2022-10-22T04:37:11.063Z,99052.91
2022-10-22T04:38:11.062Z,99053.33
2022-10-22T04:39:11.056Z,99052.41
2022-10-22T04:40:11.062Z,99052.22
2022-10-22T04:41:19.058Z,99056.88
2022-10-22T04:42:11.060Z,99057.57
2022-10-22T04:43:11.060Z,99060.44
2022-10-22T04:44:14.072Z,99066.29
2022-10-22T04:45:13.077Z,99064.22
2022-10-22T04:46:11.074Z,99067.54
2022-10-22T04:47:11.068Z,99067.97
2022-10-22T04:48:11.065Z,99074.45
2022-10-22T04:49:11.058Z,99072.47
2022-10-22T04:50:11.070Z,99073.31
2022-10-22T04:51:11.061Z,99074.54
2022-10-22T04:52:11.060Z,99077.01
2022-10-22T04:53:11.062Z,99080.36
2022-10-22T04:54:11.065Z,99079.80
2022-10-22T04:55:11.061Z,99081.02
2022-10-22T04:56:17.063Z,99084.68
2022-10-22T04:57:11.069Z,99087.88
2022-10-22T04:58:11.061Z,99087.88
2022-10-22T04:59:11.065Z,99087.57
2022-10-22T05:00:11.069Z,99091.13
2022-10-22T05:01:19.117Z,99094.73
2022-10-22T05:02:11.060Z,99097.06
2022-10-22T05:03:11.065Z,99095.72
2022-10-22T05:04:14.063Z,99095.95
2022-10-22T05:05:11.062Z,99100.82
2022-10-22T05:07:11.065Z,99104.58
2022-10-22T05:08:11.061Z,99107.43
2022-10-22T05:09:13.111Z,99111.99
2022-10-22T05:10:11.072Z,99112.39
2022-10-22T05:11:16.063Z,99109.83
2022-10-22T05:12:11.062Z,99113.99
2022-10-22T05:13:11.065Z,99115.84
2022-10-22T05:14:11.064Z,99116.09
2022-10-22T05:15:11.063Z,99119.50
2022-10-22T05:16:11.063Z,99125.20
2022-10-22T05:17:11.066Z,99126.13
2022-10-22T05:18:11.067Z,99128.70
2022-10-22T05:19:14.068Z,99126.43
2022-10-22T05:20:11.068Z,99133.36
2022-10-22T05:21:15.059Z,99124.97
2022-10-22T05:22:11.055Z,99124.81
2022-10-22T05:23:11.071Z,99125.47
2022-10-22T05:24:11.061Z,99129.25
2022-10-22T05:25:11.060Z,99131.60
2022-10-22T05:26:11.059Z,99134.04
2022-10-22T05:27:11.098Z,99134.50
2022-10-22T05:28:11.059Z,99135.67
2022-10-22T05:29:11.058Z,99138.42
2022-10-22T05:30:11.061Z,99135.48
2022-10-22T05:31:11.060Z,99137.01
2022-10-22T05:32:11.058Z,99139.51
2022-10-22T05:33:11.060Z,99139.18
2022-10-22T05:34:11.057Z,99133.70
2022-10-22T05:35:11.060Z,99137.72
2022-10-22T05:36:14.063Z,99137.87
2022-10-22T05:37:11.059Z,99142.88
2022-10-22T05:38:11.057Z,99140.19
2022-10-22T05:39:11.063Z,99141.64
2022-10-22T05:40:26.543Z,99140.18
2022-10-22T05:41:13.185Z,99146.66
2022-10-22T05:42:11.062Z,99148.09
2022-10-22T05:43:11.068Z,99146.07
2022-10-22T05:44:12.060Z,99147.17
2022-10-22T05:45:11.063Z,99149.48
2022-10-22T05:46:16.561Z,99149.76
2022-10-22T05:47:11.063Z,99155.24
2022-10-22T05:48:11.064Z,99157.93
2022-10-22T05:49:14.070Z,99151.14
2022-10-22T05:50:11.062Z,99155.05
2022-10-22T05:51:12.060Z,99153.62
2022-10-22T05:52:11.064Z,99153.93
2022-10-22T05:53:11.069Z,99156.75
2022-10-22T05:54:15.060Z,99156.26
2022-10-22T05:55:11.063Z,99161.27
2022-10-22T05:56:12.069Z,99164.70
2022-10-22T05:57:11.064Z,99163.65
2022-10-22T05:58:11.069Z,99165.21
2022-10-22T05:59:11.072Z,99166.03
2022-10-22T06:00:12.933Z,99164.55
2022-10-22T06:01:18.067Z,99168.27
2022-10-22T06:02:11.087Z,99165.12
2022-10-22T06:03:11.072Z,99167.93
2022-10-22T06:04:11.062Z,99163.75
2022-10-22T06:05:11.063Z,99165.20
2022-10-22T06:06:21.066Z,99166.59
2022-10-22T06:07:14.065Z,99164.80
2022-10-22T06:08:16.743Z,99171.90
2022-10-22T06:09:22.103Z,99170.54
2022-10-22T06:10:15.064Z,99170.44
2022-10-22T06:11:11.065Z,99168.55
2022-10-22T06:12:14.063Z,99171.89
2022-10-22T06:13:12.066Z,99175.12
2022-10-22T06:14:11.083Z,99175.52
2022-10-22T06:15:12.066Z,99174.25
2022-10-22T06:16:11.065Z,99174.96
2022-10-22T06:17:11.064Z,99178.49
2022-10-22T06:18:11.068Z,99179.12
2022-10-22T06:19:13.067Z,99182.98
2022-10-22T06:20:11.071Z,99181.39
2022-10-22T06:21:11.060Z,99184.44
2022-10-22T06:22:11.057Z,99183.95
2022-10-22T06:23:11.058Z,99181.99
2022-10-22T06:24:11.072Z,99185.41
2022-10-22T06:25:11.060Z,99182.39
2022-10-22T06:26:11.055Z,99182.54
2022-10-22T06:27:11.062Z,99186.48
2022-10-22T06:28:11.062Z,99188.16
2022-10-22T06:29:11.058Z,99192.40
2022-10-22T06:30:11.061Z,99192.95
2022-10-22T06:31:11.066Z,99190.31
2022-10-22T06:32:11.059Z,99191.43
2022-10-22T06:33:11.059Z,99193.54
2022-10-22T06:34:13.069Z,99202.80
2022-10-22T06:35:11.060Z,99202.43
2022-10-22T06:36:14.055Z,99204.77
2022-10-22T06:37:11.060Z,99210.43
2022-10-22T06:38:11.061Z,99212.07
2022-10-22T06:39:12.062Z,99212.66
2022-10-22T06:40:11.062Z,99213.00
2022-10-22T06:41:14.063Z,99206.92
2022-10-22T06:42:11.059Z,99213.11
2022-10-22T06:43:11.062Z,99210.29
2022-10-22T06:44:14.068Z,99212.28
2022-10-22T06:45:11.062Z,99213.59
2022-10-22T06:46:13.605Z,99215.07
2022-10-22T06:47:13.128Z,99214.90
2022-10-22T06:48:11.071Z,99217.97
2022-10-22T06:49:13.059Z,99218.38
2022-10-22T06:50:11.060Z,99222.12
2022-10-22T06:51:11.065Z,99225.29
2022-10-22T06:52:11.063Z,99224.45
2022-10-22T06:53:11.096Z,99223.61
2022-10-22T06:54:11.064Z,99226.70
2022-10-22T06:55:11.063Z,99226.70
2022-10-22T06:56:11.059Z,99231.25
2022-10-22T06:57:11.063Z,99233.87
2022-10-22T06:58:11.075Z,99235.48
2022-10-22T06:59:11.065Z,99239.73
2022-10-22T07:00:11.067Z,99235.99
2022-10-22T07:01:12.117Z,99242.81
2022-10-22T07:02:11.063Z,99242.71
2022-10-22T07:03:12.063Z,99246.80
2022-10-22T07:04:11.061Z,99247.86
2022-10-22T07:05:11.063Z,99251.09
2022-10-22T07:06:11.063Z,99252.54
2022-10-22T07:07:11.063Z,99255.61
2022-10-22T07:08:11.064Z,99259.44
2022-10-22T07:09:11.234Z,99255.46
2022-10-22T07:10:11.063Z,99260.87
2022-10-22T07:11:11.074Z,99263.04
2022-10-22T07:12:11.065Z,99266.64
2022-10-22T07:13:11.060Z,99268.73
2022-10-22T07:14:11.066Z,99266.24
2022-10-22T07:15:11.065Z,99268.81
2022-10-22T07:16:11.063Z,99268.43
2022-10-22T07:17:11.064Z,99268.16
2022-10-22T07:18:11.066Z,99269.32
2022-10-22T07:19:11.061Z,99268.81
2022-10-22T07:20:11.068Z,99265.96
2022-10-22T07:21:11.060Z,99268.05
2022-10-22T07:22:11.053Z,99272.38
2022-10-22T07:23:11.058Z,99275.29
2022-10-22T07:24:11.060Z,99278.67
2022-10-22T07:25:11.057Z,99282.67
2022-10-22T07:26:12.064Z,99280.20
2022-10-22T07:27:11.848Z,99283.66
2022-10-22T07:28:11.057Z,99289.08
2022-10-22T07:29:11.059Z,99288.59
2022-10-22T07:30:11.065Z,99286.30
2022-10-22T07:31:11.063Z,99286.12
2022-10-22T07:32:11.060Z,99290.66
2022-10-22T07:33:11.065Z,99291.60
2022-10-22T07:34:11.100Z,99290.95
2022-10-22T07:35:11.059Z,99294.96
2022-10-22T07:36:11.059Z,99292.50
2022-10-22T07:37:11.062Z,99296.18
2022-10-22T07:38:11.060Z,99300.16
2022-10-22T07:39:11.059Z,99302.23
2022-10-22T07:40:11.061Z,99306.30
2022-10-22T07:41:11.058Z,99306.96
2022-10-22T07:42:11.060Z,99305.73
2022-10-22T07:43:11.068Z,99310.25
2022-10-22T07:44:11.058Z,99309.62
2022-10-22T07:45:11.063Z,99308.75
2022-10-22T07:46:12.069Z,99311.29
2022-10-22T07:47:11.061Z,99307.52
2022-10-22T07:48:11.061Z,99312.54
2022-10-22T07:49:11.060Z,99321.18
2022-10-22T07:50:11.061Z,99325.52
2022-10-22T07:51:11.061Z,99328.64
2022-10-22T07:52:11.062Z,99332.14
2022-10-22T07:53:11.068Z,99333.83
2022-10-22T07:54:11.061Z,99337.33
2022-10-22T07:55:11.062Z,99340.84
2022-10-22T07:56:11.070Z,99343.12
2022-10-22T07:57:11.062Z,99340.45
2022-10-22T07:58:11.061Z,99340.25
2022-10-22T07:59:11.063Z,99346.18
2022-10-22T08:00:11.062Z,99340.75
2022-10-22T08:01:11.143Z,99343.88
2022-10-22T08:02:11.065Z,99344.74
2022-10-22T08:03:13.062Z,99345.34
2022-10-22T08:04:12.061Z,99350.59
2022-10-22T08:05:11.063Z,99352.67
2022-10-22T08:06:12.064Z,99351.85
2022-10-22T08:07:11.061Z,99359.18
2022-10-22T08:08:11.063Z,99357.07
2022-10-22T08:09:11.148Z,99358.33
2022-10-22T08:10:11.061Z,99358.84
2022-10-22T08:11:11.064Z,99361.52
2022-10-22T08:12:11.074Z,99362.14
2022-10-22T08:13:11.061Z,99365.76
2022-10-22T08:14:11.065Z,99365.72
2022-10-22T08:15:11.065Z,99369.61
2022-10-22T08:16:11.067Z,99374.83
2022-10-22T08:17:11.064Z,99372.65
2022-10-22T08:18:11.064Z,99380.34
2022-10-22T08:19:11.065Z,99381.96
2022-10-22T08:20:11.064Z,99384.38
2022-10-22T08:21:11.059Z,99380.46
2022-10-22T08:22:11.070Z,99373.88
2022-10-22T08:23:11.056Z,99375.60
2022-10-22T08:24:11.066Z,99374.81
2022-10-22T08:25:11.066Z,99376.97
2022-10-22T08:26:11.057Z,99373.27
2022-10-22T08:27:11.059Z,99375.08
2022-10-22T08:28:11.069Z,99376.61
2022-10-22T08:29:11.060Z,99378.31
2022-10-22T08:30:11.062Z,99379.57
2022-10-22T08:31:11.068Z,99383.19
2022-10-22T08:32:11.062Z,99383.65
2022-10-22T08:33:11.061Z,99380.30
2022-10-22T08:34:12.062Z,99384.80
2022-10-22T08:35:14.104Z,99379.75
2022-10-22T08:36:13.100Z,99382.37
2022-10-22T08:37:12.060Z,99378.36
2022-10-22T08:38:11.067Z,99382.77
2022-10-22T08:39:11.062Z,99383.13
2022-10-22T08:40:16.060Z,99386.96
2022-10-22T08:41:14.072Z,99385.87
2022-10-22T08:42:19.066Z,99390.11
2022-10-22T08:43:19.060Z,99392.20
2022-10-22T08:44:21.064Z,99394.34
2022-10-22T08:45:19.060Z,99392.42
2022-10-22T08:46:19.071Z,99388.92
2022-10-22T08:47:22.444Z,99394.41
2022-10-22T08:48:21.059Z,99396.82
2022-10-22T08:49:21.062Z,99389.01
2022-10-22T08:50:12.058Z,99396.16
2022-10-22T08:51:14.072Z,99392.87
2022-10-22T08:52:15.062Z,99395.94
2022-10-22T08:53:16.065Z,99392.05
2022-10-22T08:54:19.069Z,99395.23
2022-10-22T08:55:14.074Z,99398.29
2022-10-22T08:56:11.064Z,99398.18
2022-10-22T08:57:19.142Z,99397.12
2022-10-22T08:58:19.065Z,99403.59
2022-10-22T08:59:21.081Z,99395.14
2022-10-22T09:00:17.063Z,99398.14
2022-10-22T09:01:15.064Z,99400.84
2022-10-22T09:02:21.063Z,99404.36
2022-10-22T09:03:21.067Z,99405.97
2022-10-22T09:04:21.071Z,99403.05
2022-10-22T09:05:19.066Z,99407.44
2022-10-22T09:06:15.065Z,99403.79
2022-10-22T09:07:11.064Z,99406.48
2022-10-22T09:08:15.065Z,99418.30
2022-10-22T09:09:18.146Z,99415.09
2022-10-22T09:10:11.065Z,99414.98
2022-10-22T09:11:23.066Z,99411.42
2022-10-22T09:12:19.319Z,99414.20
2022-10-22T09:13:15.091Z,99416.73
2022-10-22T09:14:17.069Z,99413.94
2022-10-22T09:15:17.060Z,99412.96
2022-10-22T09:16:21.066Z,99410.52
2022-10-22T09:17:19.072Z,99401.38
2022-10-22T09:18:19.065Z,99404.54
2022-10-22T09:19:21.064Z,99408.02
2022-10-22T09:20:19.093Z,99411.98
2022-10-22T09:21:19.057Z,99411.31
2022-10-22T09:22:21.158Z,99412.23
2022-10-22T09:23:21.072Z,99406.10
2022-10-22T09:24:21.058Z,99410.26
2022-10-22T09:25:19.058Z,99413.33
2022-10-22T09:26:15.056Z,99416.52
2022-10-22T09:27:19.059Z,99416.44
2022-10-22T09:28:11.062Z,99417.40
2022-10-22T09:29:19.060Z,99416.30
2022-10-22T09:30:19.058Z,99417.63
2022-10-22T09:31:13.055Z,99418.60
2022-10-22T09:32:11.059Z,99422.22
2022-10-22T09:33:16.061Z,99419.45
2022-10-22T09:34:13.058Z,99424.32
2022-10-22T09:35:12.060Z,99424.50
2022-10-22T09:36:15.067Z,99426.28
2022-10-22T09:37:11.062Z,99426.26
2022-10-22T09:38:13.063Z,99428.44
2022-10-22T09:39:19.070Z,99423.20
2022-10-22T09:40:15.068Z,99427.64
2022-10-22T09:41:11.065Z,99435.16
2022-10-22T09:42:11.060Z,99434.79
2022-10-22T09:43:12.063Z,99429.48
2022-10-22T09:44:12.062Z,99440.66
2022-10-22T09:45:19.062Z,99436.48
2022-10-22T09:46:15.061Z,99438.77
2022-10-22T09:47:19.061Z,99440.71
2022-10-22T09:48:21.061Z,99439.91
2022-10-22T09:49:15.060Z,99441.90
2022-10-22T09:50:19.065Z,99444.79
2022-10-22T09:51:20.077Z,99445.61
2022-10-22T09:52:19.062Z,99449.81
2022-10-22T09:53:21.061Z,99443.31
2022-10-22T09:54:16.065Z,99444.50
2022-10-22T09:55:15.085Z,99444.94
2022-10-22T09:56:20.064Z,99440.43
2022-10-22T09:57:18.063Z,99442.44
2022-10-22T09:58:12.061Z,99451.12
2022-10-22T09:59:15.062Z,99450.86
2022-10-22T10:00:11.068Z,99452.57
2022-10-22T10:01:15.064Z,99453.12
2022-10-22T10:02:37.153Z,99456.50
2022-10-22T10:03:20.457Z,99461.07
2022-10-22T10:04:14.157Z,99463.27
2022-10-22T10:05:19.066Z,99460.77
2022-10-22T10:06:11.061Z,99463.17
2022-10-22T10:07:19.062Z,99469.45
2022-10-22T10:08:15.065Z,99470.11
2022-10-22T10:09:19.134Z,99472.15
2022-10-22T10:10:17.063Z,99476.04
2022-10-22T10:11:22.774Z,99474.21
2022-10-22T10:12:19.063Z,99475.87
2022-10-22T10:13:21.077Z,99474.02
2022-10-22T10:14:19.066Z,99479.95
2022-10-22T10:15:19.067Z,99479.88
2022-10-22T10:16:19.061Z,99483.50
2022-10-22T10:17:21.066Z,99474.71
2022-10-22T10:18:21.067Z,99480.49
2022-10-22T10:19:21.072Z,99474.05
2022-10-22T10:20:19.097Z,99476.86
2022-10-22T10:21:21.060Z,99478.91
2022-10-22T10:22:21.056Z,99470.42
2022-10-22T10:23:21.761Z,99479.41
2022-10-22T10:24:23.068Z,99477.55
2022-10-22T10:25:21.058Z,99478.68
2022-10-22T10:26:21.096Z,99485.92
2022-10-22T10:27:19.060Z,99478.45
2022-10-22T10:28:21.059Z,99483.43
2022-10-22T10:29:21.057Z,99486.96
2022-10-22T10:30:18.054Z,99484.40
2022-10-22T10:31:19.057Z,99482.44
2022-10-22T10:32:23.657Z,99486.99
2022-10-22T10:33:19.071Z,99489.86
2022-10-22T10:34:19.062Z,99484.05
2022-10-22T10:35:19.059Z,99485.01
2022-10-22T10:36:21.058Z,99488.10
2022-10-22T10:37:19.064Z,99495.65
2022-10-22T10:38:19.067Z,99495.38
2022-10-22T10:39:19.075Z,99493.11
2022-10-22T10:40:19.067Z,99493.39
2022-10-22T10:41:19.059Z,99493.54
2022-10-22T10:42:21.071Z,99498.41
2022-10-22T10:43:21.065Z,99493.05
2022-10-22T10:44:19.069Z,99497.52
2022-10-22T10:45:17.064Z,99492.07
2022-10-22T10:46:19.065Z,99495.68
2022-10-22T10:47:21.062Z,99499.83
2022-10-22T10:48:19.063Z,99497.72
2022-10-22T10:49:14.061Z,99499.00
2022-10-22T10:50:20.064Z,99496.91
2022-10-22T10:51:19.064Z,99492.20
2022-10-22T10:52:21.504Z,99496.59
2022-10-22T10:53:19.061Z,99497.59
2022-10-22T10:54:19.065Z,99494.21
2022-10-22T10:55:19.069Z,99503.50
2022-10-22T10:56:19.064Z,99498.50
2022-10-22T10:57:19.066Z,99498.11
2022-10-22T10:58:19.062Z,99495.97
2022-10-22T10:59:18.066Z,99498.49
2022-10-22T11:00:16.067Z,99504.42
2022-10-22T11:01:19.090Z,99499.41
2022-10-22T11:02:19.063Z,99504.20
2022-10-22T11:03:21.061Z,99508.92
2022-10-22T11:04:19.064Z,99508.01
2022-10-22T11:05:19.068Z,99510.06
2022-10-22T11:06:16.074Z,99509.40
2022-10-22T11:07:23.320Z,99511.62
2022-10-22T11:08:20.280Z,99509.16
2022-10-22T11:09:19.203Z,99517.58
2022-10-22T11:10:19.077Z,99510.66
2022-10-22T11:11:20.070Z,99511.98
2022-10-22T11:12:19.063Z,99506.55
2022-10-22T11:13:21.067Z,99510.45
2022-10-22T11:14:19.065Z,99511.61
2022-10-22T11:15:19.073Z,99509.61
2022-10-22T11:16:19.071Z,99511.21
2022-10-22T11:17:15.066Z,99516.53
2022-10-22T11:18:19.070Z,99517.44
2022-10-22T11:19:33.181Z,99516.21
2022-10-22T11:20:23.109Z,99518.75
2022-10-22T11:21:23.057Z,99523.04
2022-10-22T11:22:18.059Z,99520.55
2022-10-22T11:23:20.779Z,99519.81
2022-10-22T11:24:23.065Z,99521.08
2022-10-22T11:25:19.061Z,99521.11
2022-10-22T11:26:17.071Z,99521.85
2022-10-22T11:27:19.060Z,99519.85
2022-10-22T11:28:19.062Z,99522.81
2022-10-22T11:29:17.059Z,99525.81
2022-10-22T11:30:13.061Z,99523.74
2022-10-22T11:31:17.060Z,99525.12
2022-10-22T11:32:16.059Z,99524.58
2022-10-22T11:33:17.062Z,99523.34
2022-10-22T11:34:32.555Z,99529.35
2022-10-22T11:35:21.153Z,99520.80
2022-10-22T11:36:13.271Z,99520.12
2022-10-22T11:37:13.058Z,99526.58
2022-10-22T11:38:14.059Z,99525.53
2022-10-22T11:39:19.062Z,99527.79
2022-10-22T11:40:16.062Z,99528.21
2022-10-22T11:41:16.060Z,99526.88
2022-10-22T11:42:21.062Z,99523.10
2022-10-22T11:43:11.064Z,99527.80
2022-10-22T11:44:11.061Z,99519.43
2022-10-22T11:45:19.059Z,99524.39